MPTO - Tocumen Intl.
MPTO 050500Z 20004KT 9999 FEW018 25/23 Q1011 NOSIG
Observed:
Wind:
visibility:
Flight Rules:
Cloud Levels:
Temperature:
Humidity:
Pressure: